sensor_id;sensor_type;location;lat;lon;timestamp;P1;durP1;ratioP1;P2;durP2;ratioP2
18526;SDS011;9393;42.158;24.748;2022-10-16T00:02:57;8.50;;;5.33;;
18526;SDS011;9393;42.158;24.748;2022-10-16T00:06:02;10.27;;;5.70;;
18526;SDS011;9393;42.158;24.748;2022-10-16T00:09:06;11.97;;;6.23;;
18526;SDS011;9393;42.158;24.748;2022-10-16T00:12:09;12.97;;;6.50;;
18526;SDS011;9393;42.158;24.748;2022-10-16T00:15:13;10.80;;;6.20;;
18526;SDS011;9393;42.158;24.748;2022-10-16T00:18:16;12.77;;;6.03;;
18526;SDS011;9393;42.158;24.748;2022-10-16T00:21:21;9.97;;;6.60;;
18526;SDS011;9393;42.158;24.748;2022-10-16T00:24:26;11.30;;;6.47;;
18526;SDS011;9393;42.158;24.748;2022-10-16T00:27:29;11.77;;;7.00;;
18526;SDS011;9393;42.158;24.748;2022-10-16T00:30:33;12.50;;;6.90;;
18526;SDS011;9393;42.158;24.748;2022-10-16T00:33:36;16.80;;;7.83;;
18526;SDS011;9393;42.158;24.748;2022-10-16T00:36:42;14.73;;;7.13;;
18526;SDS011;9393;42.158;24.748;2022-10-16T00:39:46;15.80;;;6.83;;
18526;SDS011;9393;42.158;24.748;2022-10-16T00:42:49;14.20;;;7.67;;
18526;SDS011;9393;42.158;24.748;2022-10-16T00:45:52;14.97;;;8.23;;
18526;SDS011;9393;42.158;24.748;2022-10-16T00:48:57;14.97;;;7.90;;
18526;SDS011;9393;42.158;24.748;2022-10-16T00:52:06;14.00;;;7.27;;
18526;SDS011;9393;42.158;24.748;2022-10-16T00:55:09;10.60;;;7.20;;
18526;SDS011;9393;42.158;24.748;2022-10-16T00:58:13;13.80;;;7.73;;
18526;SDS011;9393;42.158;24.748;2022-10-16T01:01:16;14.03;;;7.63;;
18526;SDS011;9393;42.158;24.748;2022-10-16T01:04:19;13.03;;;7.47;;
18526;SDS011;9393;42.158;24.748;2022-10-16T01:07:30;13.70;;;7.83;;
18526;SDS011;9393;42.158;24.748;2022-10-16T01:10:44;11.17;;;7.07;;
18526;SDS011;9393;42.158;24.748;2022-10-16T01:14:02;16.93;;;8.50;;
18526;SDS011;9393;42.158;24.748;2022-10-16T01:17:12;16.53;;;8.40;;
18526;SDS011;9393;42.158;24.748;2022-10-16T01:20:20;12.07;;;7.47;;
18526;SDS011;9393;42.158;24.748;2022-10-16T01:23:34;11.60;;;7.17;;
18526;SDS011;9393;42.158;24.748;2022-10-16T01:30:15;13.80;;;7.23;;
18526;SDS011;9393;42.158;24.748;2022-10-16T01:33:24;12.27;;;7.60;;
18526;SDS011;9393;42.158;24.748;2022-10-16T01:36:35;13.17;;;7.80;;
18526;SDS011;9393;42.158;24.748;2022-10-16T01:39:42;13.83;;;7.20;;
18526;SDS011;9393;42.158;24.748;2022-10-16T01:42:50;11.63;;;7.30;;
18526;SDS011;9393;42.158;24.748;2022-10-16T01:45:59;11.30;;;7.40;;
18526;SDS011;9393;42.158;24.748;2022-10-16T01:49:03;12.43;;;7.67;;
18526;SDS011;9393;42.158;24.748;2022-10-16T01:52:09;11.73;;;7.60;;
18526;SDS011;9393;42.158;24.748;2022-10-16T01:55:17;11.13;;;7.83;;
18526;SDS011;9393;42.158;24.748;2022-10-16T01:58:26;9.70;;;7.47;;
18526;SDS011;9393;42.158;24.748;2022-10-16T02:01:36;11.03;;;6.97;;
18526;SDS011;9393;42.158;24.748;2022-10-16T02:04:44;14.07;;;7.70;;
18526;SDS011;9393;42.158;24.748;2022-10-16T02:07:50;11.20;;;7.60;;
18526;SDS011;9393;42.158;24.748;2022-10-16T02:10:54;11.93;;;6.87;;
18526;SDS011;9393;42.158;24.748;2022-10-16T02:14:00;9.53;;;6.63;;
18526;SDS011;9393;42.158;24.748;2022-10-16T02:17:10;11.17;;;6.93;;
18526;SDS011;9393;42.158;24.748;2022-10-16T02:20:14;10.20;;;6.40;;
18526;SDS011;9393;42.158;24.748;2022-10-16T02:23:19;10.50;;;7.20;;
18526;SDS011;9393;42.158;24.748;2022-10-16T02:26:28;10.87;;;6.23;;
18526;SDS011;9393;42.158;24.748;2022-10-16T02:29:38;10.60;;;7.00;;
18526;SDS011;9393;42.158;24.748;2022-10-16T02:32:47;16.37;;;6.93;;
18526;SDS011;9393;42.158;24.748;2022-10-16T02:35:51;11.33;;;6.97;;
18526;SDS011;9393;42.158;24.748;2022-10-16T02:38:56;10.63;;;7.00;;
18526;SDS011;9393;42.158;24.748;2022-10-16T02:42:01;10.73;;;7.67;;
18526;SDS011;9393;42.158;24.748;2022-10-16T02:45:07;12.70;;;7.57;;
18526;SDS011;9393;42.158;24.748;2022-10-16T02:48:12;13.23;;;8.73;;
18526;SDS011;9393;42.158;24.748;2022-10-16T02:51:16;20.73;;;9.03;;
18526;SDS011;9393;42.158;24.748;2022-10-16T02:54:19;17.70;;;10.13;;
18526;SDS011;9393;42.158;24.748;2022-10-16T02:57:22;17.83;;;9.43;;
18526;SDS011;9393;42.158;24.748;2022-10-16T03:00:27;25.13;;;10.17;;
18526;SDS011;9393;42.158;24.748;2022-10-16T03:03:31;19.87;;;9.63;;
18526;SDS011;9393;42.158;24.748;2022-10-16T03:06:34;17.77;;;8.60;;
18526;SDS011;9393;42.158;24.748;2022-10-16T03:09:37;13.43;;;8.47;;
18526;SDS011;9393;42.158;24.748;2022-10-16T03:12:41;13.50;;;8.27;;
18526;SDS011;9393;42.158;24.748;2022-10-16T03:15:45;16.17;;;9.17;;
18526;SDS011;9393;42.158;24.748;2022-10-16T03:18:49;21.67;;;9.50;;
18526;SDS011;9393;42.158;24.748;2022-10-16T03:21:52;13.57;;;8.73;;
18526;SDS011;9393;42.158;24.748;2022-10-16T03:24:56;11.60;;;9.27;;
18526;SDS011;9393;42.158;24.748;2022-10-16T03:27:59;16.77;;;10.40;;
18526;SDS011;9393;42.158;24.748;2022-10-16T03:31:04;18.50;;;13.27;;
18526;SDS011;9393;42.158;24.748;2022-10-16T03:34:07;23.03;;;15.30;;
18526;SDS011;9393;42.158;24.748;2022-10-16T03:37:10;26.97;;;18.20;;
18526;SDS011;9393;42.158;24.748;2022-10-16T03:40:14;30.50;;;19.50;;
18526;SDS011;9393;42.158;24.748;2022-10-16T03:43:17;30.27;;;21.40;;
18526;SDS011;9393;42.158;24.748;2022-10-16T03:46:22;33.63;;;19.30;;
18526;SDS011;9393;42.158;24.748;2022-10-16T03:49:25;29.13;;;17.80;;
18526;SDS011;9393;42.158;24.748;2022-10-16T03:52:28;27.30;;;16.07;;
18526;SDS011;9393;42.158;24.748;2022-10-16T03:55:34;22.63;;;15.53;;
18526;SDS011;9393;42.158;24.748;2022-10-16T03:58:37;27.23;;;17.87;;
18526;SDS011;9393;42.158;24.748;2022-10-16T04:01:42;35.73;;;22.93;;
18526;SDS011;9393;42.158;24.748;2022-10-16T04:04:45;38.37;;;23.57;;
18526;SDS011;9393;42.158;24.748;2022-10-16T04:07:49;32.77;;;21.70;;
18526;SDS011;9393;42.158;24.748;2022-10-16T04:10:52;26.47;;;20.83;;
18526;SDS011;9393;42.158;24.748;2022-10-16T04:13:55;34.17;;;23.07;;
18526;SDS011;9393;42.158;24.748;2022-10-16T04:17:00;35.30;;;24.40;;
18526;SDS011;9393;42.158;24.748;2022-10-16T04:20:03;36.73;;;26.53;;
18526;SDS011;9393;42.158;24.748;2022-10-16T04:23:08;28.70;;;20.27;;
18526;SDS011;9393;42.158;24.748;2022-10-16T04:26:11;26.23;;;18.60;;
18526;SDS011;9393;42.158;24.748;2022-10-16T04:29:14;22.37;;;17.83;;
18526;SDS011;9393;42.158;24.748;2022-10-16T04:32:19;25.10;;;16.37;;
18526;SDS011;9393;42.158;24.748;2022-10-16T04:35:22;21.00;;;15.87;;
18526;SDS011;9393;42.158;24.748;2022-10-16T04:38:25;20.03;;;15.10;;
18526;SDS011;9393;42.158;24.748;2022-10-16T04:41:29;19.03;;;14.77;;
18526;SDS011;9393;42.158;24.748;2022-10-16T04:44:32;22.07;;;12.00;;
18526;SDS011;9393;42.158;24.748;2022-10-16T04:47:37;16.87;;;12.07;;
18526;SDS011;9393;42.158;24.748;2022-10-16T04:50:40;18.67;;;9.83;;
18526;SDS011;9393;42.158;24.748;2022-10-16T04:53:44;15.10;;;8.50;;
18526;SDS011;9393;42.158;24.748;2022-10-16T04:56:47;11.17;;;6.67;;
18526;SDS011;9393;42.158;24.748;2022-10-16T04:59:53;11.03;;;6.57;;
18526;SDS011;9393;42.158;24.748;2022-10-16T05:02:58;8.30;;;6.10;;
18526;SDS011;9393;42.158;24.748;2022-10-16T05:06:04;9.57;;;6.03;;
18526;SDS011;9393;42.158;24.748;2022-10-16T05:09:08;11.40;;;6.90;;
18526;SDS011;9393;42.158;24.748;2022-10-16T05:12:12;9.57;;;6.40;;
18526;SDS011;9393;42.158;24.748;2022-10-16T05:15:15;12.97;;;6.90;;
18526;SDS011;9393;42.158;24.748;2022-10-16T05:18:20;12.00;;;6.53;;
18526;SDS011;9393;42.158;24.748;2022-10-16T05:21:23;10.33;;;7.20;;
18526;SDS011;9393;42.158;24.748;2022-10-16T05:24:26;13.93;;;8.57;;
18526;SDS011;9393;42.158;24.748;2022-10-16T05:27:29;14.93;;;9.60;;
18526;SDS011;9393;42.158;24.748;2022-10-16T05:30:33;12.90;;;9.70;;
18526;SDS011;9393;42.158;24.748;2022-10-16T05:33:37;13.87;;;9.90;;
18526;SDS011;9393;42.158;24.748;2022-10-16T05:36:41;9.50;;;6.30;;
18526;SDS011;9393;42.158;24.748;2022-10-16T05:39:46;9.17;;;6.60;;
18526;SDS011;9393;42.158;24.748;2022-10-16T05:42:49;10.90;;;6.27;;
18526;SDS011;9393;42.158;24.748;2022-10-16T05:45:58;12.60;;;6.20;;
18526;SDS011;9393;42.158;24.748;2022-10-16T05:49:04;10.57;;;7.47;;
18526;SDS011;9393;42.158;24.748;2022-10-16T05:52:07;10.73;;;7.83;;
18526;SDS011;9393;42.158;24.748;2022-10-16T05:55:10;12.23;;;8.20;;
18526;SDS011;9393;42.158;24.748;2022-10-16T05:58:13;10.77;;;7.53;;
18526;SDS011;9393;42.158;24.748;2022-10-16T06:01:17;11.93;;;6.83;;
18526;SDS011;9393;42.158;24.748;2022-10-16T06:04:23;8.53;;;5.90;;
18526;SDS011;9393;42.158;24.748;2022-10-16T06:07:27;7.87;;;5.70;;
18526;SDS011;9393;42.158;24.748;2022-10-16T06:10:30;12.43;;;6.23;;
18526;SDS011;9393;42.158;24.748;2022-10-16T06:13:33;7.40;;;5.67;;
18526;SDS011;9393;42.158;24.748;2022-10-16T06:16:37;13.00;;;7.33;;
18526;SDS011;9393;42.158;24.748;2022-10-16T06:19:41;8.67;;;6.40;;
18526;SDS011;9393;42.158;24.748;2022-10-16T06:22:45;10.63;;;6.70;;
18526;SDS011;9393;42.158;24.748;2022-10-16T06:25:48;11.00;;;7.00;;
18526;SDS011;9393;42.158;24.748;2022-10-16T06:28:51;10.13;;;7.30;;
18526;SDS011;9393;42.158;24.748;2022-10-16T06:31:57;10.23;;;6.93;;
18526;SDS011;9393;42.158;24.748;2022-10-16T06:35:01;15.73;;;8.40;;
18526;SDS011;9393;42.158;24.748;2022-10-16T06:38:05;14.87;;;10.70;;
18526;SDS011;9393;42.158;24.748;2022-10-16T06:41:09;14.20;;;8.87;;
18526;SDS011;9393;42.158;24.748;2022-10-16T06:44:13;12.63;;;9.27;;
18526;SDS011;9393;42.158;24.748;2022-10-16T06:47:17;11.30;;;7.60;;
18526;SDS011;9393;42.158;24.748;2022-10-16T06:50:21;17.37;;;8.70;;
18526;SDS011;9393;42.158;24.748;2022-10-16T06:53:25;11.60;;;7.17;;
18526;SDS011;9393;42.158;24.748;2022-10-16T06:56:30;8.57;;;6.57;;
18526;SDS011;9393;42.158;24.748;2022-10-16T06:59:34;12.23;;;6.70;;
18526;SDS011;9393;42.158;24.748;2022-10-16T07:02:37;8.87;;;6.43;;
18526;SDS011;9393;42.158;24.748;2022-10-16T07:05:44;9.47;;;6.43;;
18526;SDS011;9393;42.158;24.748;2022-10-16T07:08:47;10.13;;;7.10;;
18526;SDS011;9393;42.158;24.748;2022-10-16T07:11:51;10.53;;;8.33;;
18526;SDS011;9393;42.158;24.748;2022-10-16T07:14:54;12.13;;;9.37;;
18526;SDS011;9393;42.158;24.748;2022-10-16T07:17:58;12.20;;;8.77;;
18526;SDS011;9393;42.158;24.748;2022-10-16T07:21:06;13.07;;;9.07;;
18526;SDS011;9393;42.158;24.748;2022-10-16T07:24:12;9.60;;;7.40;;
18526;SDS011;9393;42.158;24.748;2022-10-16T07:27:16;12.60;;;7.30;;
18526;SDS011;9393;42.158;24.748;2022-10-16T07:30:20;9.73;;;6.70;;
18526;SDS011;9393;42.158;24.748;2022-10-16T07:33:23;10.73;;;7.67;;
18526;SDS011;9393;42.158;24.748;2022-10-16T07:36:28;9.50;;;6.23;;
18526;SDS011;9393;42.158;24.748;2022-10-16T07:39:33;15.37;;;7.27;;
18526;SDS011;9393;42.158;24.748;2022-10-16T07:42:36;12.10;;;7.70;;
18526;SDS011;9393;42.158;24.748;2022-10-16T07:45:46;14.00;;;7.87;;
18526;SDS011;9393;42.158;24.748;2022-10-16T07:48:50;12.27;;;7.57;;
18526;SDS011;9393;42.158;24.748;2022-10-16T07:51:56;13.20;;;6.80;;
18526;SDS011;9393;42.158;24.748;2022-10-16T07:54:59;11.53;;;6.83;;
18526;SDS011;9393;42.158;24.748;2022-10-16T07:58:02;9.17;;;6.77;;
18526;SDS011;9393;42.158;24.748;2022-10-16T08:01:06;10.23;;;7.10;;
18526;SDS011;9393;42.158;24.748;2022-10-16T08:04:11;11.47;;;7.43;;
18526;SDS011;9393;42.158;24.748;2022-10-16T08:07:15;12.20;;;7.13;;
18526;SDS011;9393;42.158;24.748;2022-10-16T08:10:20;12.17;;;6.70;;
18526;SDS011;9393;42.158;24.748;2022-10-16T08:13:27;15.43;;;7.20;;
18526;SDS011;9393;42.158;24.748;2022-10-16T08:16:30;9.50;;;6.87;;
18526;SDS011;9393;42.158;24.748;2022-10-16T08:19:33;12.53;;;7.00;;
18526;SDS011;9393;42.158;24.748;2022-10-16T08:22:38;9.90;;;6.80;;
18526;SDS011;9393;42.158;24.748;2022-10-16T08:25:42;11.77;;;7.60;;
18526;SDS011;9393;42.158;24.748;2022-10-16T08:28:45;11.23;;;7.00;;
18526;SDS011;9393;42.158;24.748;2022-10-16T08:31:48;10.60;;;7.20;;
18526;SDS011;9393;42.158;24.748;2022-10-16T08:34:52;11.03;;;6.37;;
18526;SDS011;9393;42.158;24.748;2022-10-16T08:37:56;7.80;;;5.82;;
18526;SDS011;9393;42.158;24.748;2022-10-16T08:41:13;9.48;;;5.95;;
18526;SDS011;9393;42.158;24.748;2022-10-16T08:48:20;11.27;;;6.25;;
18526;SDS011;9393;42.158;24.748;2022-10-16T08:51:29;11.52;;;6.38;;
18526;SDS011;9393;42.158;24.748;2022-10-16T08:54:42;10.63;;;6.50;;
18526;SDS011;9393;42.158;24.748;2022-10-16T08:57:48;11.57;;;6.22;;
18526;SDS011;9393;42.158;24.748;2022-10-16T09:00:53;11.18;;;6.20;;
18526;SDS011;9393;42.158;24.748;2022-10-16T09:07:47;9.23;;;5.63;;
18526;SDS011;9393;42.158;24.748;2022-10-16T09:10:59;8.18;;;5.70;;
18526;SDS011;9393;42.158;24.748;2022-10-16T09:14:17;7.03;;;5.20;;
18526;SDS011;9393;42.158;24.748;2022-10-16T09:17:40;6.97;;;4.80;;
18526;SDS011;9393;42.158;24.748;2022-10-16T09:20:51;8.52;;;4.78;;
18526;SDS011;9393;42.158;24.748;2022-10-16T09:24:00;9.02;;;4.47;;
18526;SDS011;9393;42.158;24.748;2022-10-16T09:27:14;8.80;;;4.55;;
18526;SDS011;9393;42.158;24.748;2022-10-16T09:30:18;8.85;;;4.65;;
18526;SDS011;9393;42.158;24.748;2022-10-16T09:33:25;5.40;;;3.70;;
18526;SDS011;9393;42.158;24.748;2022-10-16T09:36:39;6.05;;;3.65;;
18526;SDS011;9393;42.158;24.748;2022-10-16T09:39:47;6.13;;;4.20;;
18526;SDS011;9393;42.158;24.748;2022-10-16T09:43:01;4.75;;;3.15;;
18526;SDS011;9393;42.158;24.748;2022-10-16T09:46:09;6.10;;;3.95;;
18526;SDS011;9393;42.158;24.748;2022-10-16T09:49:42;7.70;;;2.92;;
18526;SDS011;9393;42.158;24.748;2022-10-16T09:53:04;5.13;;;3.55;;
18526;SDS011;9393;42.158;24.748;2022-10-16T09:56:10;5.68;;;4.05;;
18526;SDS011;9393;42.158;24.748;2022-10-16T09:59:18;6.78;;;4.32;;
18526;SDS011;9393;42.158;24.748;2022-10-16T10:02:25;4.72;;;4.05;;
18526;SDS011;9393;42.158;24.748;2022-10-16T10:05:33;4.80;;;3.83;;
18526;SDS011;9393;42.158;24.748;2022-10-16T10:08:37;4.50;;;3.97;;
18526;SDS011;9393;42.158;24.748;2022-10-16T10:11:51;5.05;;;3.90;;
18526;SDS011;9393;42.158;24.748;2022-10-16T10:14:58;5.43;;;3.60;;
18526;SDS011;9393;42.158;24.748;2022-10-16T10:18:14;7.05;;;4.10;;
18526;SDS011;9393;42.158;24.748;2022-10-16T10:21:21;10.57;;;4.20;;
18526;SDS011;9393;42.158;24.748;2022-10-16T10:24:24;6.28;;;3.95;;
18526;SDS011;9393;42.158;24.748;2022-10-16T10:27:31;7.13;;;3.95;;
18526;SDS011;9393;42.158;24.748;2022-10-16T10:30:45;8.00;;;3.83;;
18526;SDS011;9393;42.158;24.748;2022-10-16T10:33:57;5.68;;;3.47;;
18526;SDS011;9393;42.158;24.748;2022-10-16T10:37:09;6.95;;;3.92;;
18526;SDS011;9393;42.158;24.748;2022-10-16T10:40:29;7.70;;;3.75;;
18526;SDS011;9393;42.158;24.748;2022-10-16T10:43:46;5.20;;;3.75;;
18526;SDS011;9393;42.158;24.748;2022-10-16T10:47:01;6.80;;;4.03;;
18526;SDS011;9393;42.158;24.748;2022-10-16T10:50:14;6.70;;;4.10;;
18526;SDS011;9393;42.158;24.748;2022-10-16T10:53:27;6.10;;;4.57;;
18526;SDS011;9393;42.158;24.748;2022-10-16T10:56:41;8.25;;;4.28;;
18526;SDS011;9393;42.158;24.748;2022-10-16T10:59:53;5.68;;;3.92;;
18526;SDS011;9393;42.158;24.748;2022-10-16T11:03:15;10.85;;;4.13;;
18526;SDS011;9393;42.158;24.748;2022-10-16T11:06:33;7.65;;;4.13;;
18526;SDS011;9393;42.158;24.748;2022-10-16T11:09:40;7.45;;;4.72;;
18526;SDS011;9393;42.158;24.748;2022-10-16T11:12:49;5.60;;;3.80;;
18526;SDS011;9393;42.158;24.748;2022-10-16T11:15:56;7.55;;;4.28;;
18526;SDS011;9393;42.158;24.748;2022-10-16T11:19:04;6.80;;;3.75;;
18526;SDS011;9393;42.158;24.748;2022-10-16T11:22:16;7.28;;;3.65;;
18526;SDS011;9393;42.158;24.748;2022-10-16T11:25:23;5.97;;;3.95;;
18526;SDS011;9393;42.158;24.748;2022-10-16T11:28:36;7.22;;;4.05;;
18526;SDS011;9393;42.158;24.748;2022-10-16T11:31:45;4.90;;;3.88;;
18526;SDS011;9393;42.158;24.748;2022-10-16T11:34:55;6.85;;;3.70;;
18526;SDS011;9393;42.158;24.748;2022-10-16T11:38:02;8.13;;;4.03;;
18526;SDS011;9393;42.158;24.748;2022-10-16T11:41:15;4.70;;;4.07;;
18526;SDS011;9393;42.158;24.748;2022-10-16T11:44:33;7.28;;;3.95;;
18526;SDS011;9393;42.158;24.748;2022-10-16T11:47:45;5.97;;;3.78;;
18526;SDS011;9393;42.158;24.748;2022-10-16T11:51:02;6.18;;;3.97;;
18526;SDS011;9393;42.158;24.748;2022-10-16T11:54:15;6.32;;;3.78;;
18526;SDS011;9393;42.158;24.748;2022-10-16T11:57:24;6.85;;;3.90;;
18526;SDS011;9393;42.158;24.748;2022-10-16T12:00:31;7.65;;;4.22;;
18526;SDS011;9393;42.158;24.748;2022-10-16T12:03:42;6.43;;;4.00;;
18526;SDS011;9393;42.158;24.748;2022-10-16T12:06:54;5.65;;;3.78;;
18526;SDS011;9393;42.158;24.748;2022-10-16T12:10:09;5.28;;;4.00;;
18526;SDS011;9393;42.158;24.748;2022-10-16T12:13:29;4.97;;;4.00;;
18526;SDS011;9393;42.158;24.748;2022-10-16T12:16:34;4.97;;;3.55;;
18526;SDS011;9393;42.158;24.748;2022-10-16T12:19:40;6.93;;;3.97;;
18526;SDS011;9393;42.158;24.748;2022-10-16T12:22:48;4.82;;;3.72;;
18526;SDS011;9393;42.158;24.748;2022-10-16T12:25:56;5.35;;;3.95;;
18526;SDS011;9393;42.158;24.748;2022-10-16T12:29:11;5.97;;;4.30;;
18526;SDS011;9393;42.158;24.748;2022-10-16T12:32:23;7.90;;;3.97;;
18526;SDS011;9393;42.158;24.748;2022-10-16T12:35:48;6.03;;;3.75;;
18526;SDS011;9393;42.158;24.748;2022-10-16T12:38:54;6.53;;;4.55;;
18526;SDS011;9393;42.158;24.748;2022-10-16T12:42:01;13.10;;;6.15;;
18526;SDS011;9393;42.158;24.748;2022-10-16T12:45:21;6.38;;;5.13;;
18526;SDS011;9393;42.158;24.748;2022-10-16T12:48:28;7.03;;;5.00;;
18526;SDS011;9393;42.158;24.748;2022-10-16T12:51:49;9.13;;;6.53;;
18526;SDS011;9393;42.158;24.748;2022-10-16T12:54:56;7.93;;;4.97;;
18526;SDS011;9393;42.158;24.748;2022-10-16T12:58:05;10.05;;;5.45;;
18526;SDS011;9393;42.158;24.748;2022-10-16T13:01:21;6.47;;;4.50;;
18526;SDS011;9393;42.158;24.748;2022-10-16T13:04:53;8.73;;;5.10;;
18526;SDS011;9393;42.158;24.748;2022-10-16T13:08:19;6.30;;;4.35;;
18526;SDS011;9393;42.158;24.748;2022-10-16T13:11:48;8.00;;;4.80;;
18526;SDS011;9393;42.158;24.748;2022-10-16T13:15:05;9.05;;;5.90;;
18526;SDS011;9393;42.158;24.748;2022-10-16T13:18:21;9.77;;;5.00;;
18526;SDS011;9393;42.158;24.748;2022-10-16T13:21:32;8.30;;;4.97;;
18526;SDS011;9393;42.158;24.748;2022-10-16T13:24:46;9.02;;;4.38;;
18526;SDS011;9393;42.158;24.748;2022-10-16T13:27:59;9.80;;;4.50;;
18526;SDS011;9393;42.158;24.748;2022-10-16T13:31:03;5.82;;;4.38;;
18526;SDS011;9393;42.158;24.748;2022-10-16T13:34:09;13.23;;;4.32;;
18526;SDS011;9393;42.158;24.748;2022-10-16T13:37:17;5.15;;;3.90;;
18526;SDS011;9393;42.158;24.748;2022-10-16T13:40:24;8.35;;;4.72;;
18526;SDS011;9393;42.158;24.748;2022-10-16T13:43:29;6.55;;;4.45;;
18526;SDS011;9393;42.158;24.748;2022-10-16T13:46:37;6.93;;;4.35;;
18526;SDS011;9393;42.158;24.748;2022-10-16T13:49:40;8.85;;;4.70;;
18526;SDS011;9393;42.158;24.748;2022-10-16T13:52:43;7.40;;;4.38;;
18526;SDS011;9393;42.158;24.748;2022-10-16T13:55:47;10.80;;;4.60;;
18526;SDS011;9393;42.158;24.748;2022-10-16T13:58:59;9.52;;;4.70;;
18526;SDS011;9393;42.158;24.748;2022-10-16T14:02:05;7.65;;;4.30;;
18526;SDS011;9393;42.158;24.748;2022-10-16T14:05:20;5.47;;;4.10;;
18526;SDS011;9393;42.158;24.748;2022-10-16T14:08:23;8.35;;;5.28;;
18526;SDS011;9393;42.158;24.748;2022-10-16T14:11:28;12.55;;;5.68;;
18526;SDS011;9393;42.158;24.748;2022-10-16T14:14:34;10.80;;;4.82;;
18526;SDS011;9393;42.158;24.748;2022-10-16T14:17:43;7.47;;;4.70;;
18526;SDS011;9393;42.158;24.748;2022-10-16T14:20:51;7.82;;;4.63;;
18526;SDS011;9393;42.158;24.748;2022-10-16T14:23:57;5.90;;;4.85;;
18526;SDS011;9393;42.158;24.748;2022-10-16T14:27:01;7.60;;;4.53;;
18526;SDS011;9393;42.158;24.748;2022-10-16T14:30:12;9.05;;;4.75;;
18526;SDS011;9393;42.158;24.748;2022-10-16T14:33:20;10.15;;;5.15;;
18526;SDS011;9393;42.158;24.748;2022-10-16T14:36:25;9.38;;;4.32;;
18526;SDS011;9393;42.158;24.748;2022-10-16T14:39:30;6.15;;;4.63;;
18526;SDS011;9393;42.158;24.748;2022-10-16T14:42:34;7.63;;;4.30;;
18526;SDS011;9393;42.158;24.748;2022-10-16T14:45:39;7.18;;;4.32;;
18526;SDS011;9393;42.158;24.748;2022-10-16T14:48:45;5.63;;;4.45;;
18526;SDS011;9393;42.158;24.748;2022-10-16T14:51:51;10.50;;;4.72;;
18526;SDS011;9393;42.158;24.748;2022-10-16T14:54:54;6.22;;;4.72;;
18526;SDS011;9393;42.158;24.748;2022-10-16T14:57:58;6.70;;;4.68;;
18526;SDS011;9393;42.158;24.748;2022-10-16T15:01:03;7.45;;;4.43;;
18526;SDS011;9393;42.158;24.748;2022-10-16T15:04:08;8.52;;;4.47;;
18526;SDS011;9393;42.158;24.748;2022-10-16T15:07:15;6.40;;;4.70;;
18526;SDS011;9393;42.158;24.748;2022-10-16T15:10:18;9.07;;;4.85;;
18526;SDS011;9393;42.158;24.748;2022-10-16T15:13:24;6.53;;;5.30;;
18526;SDS011;9393;42.158;24.748;2022-10-16T15:16:29;9.65;;;5.40;;
18526;SDS011;9393;42.158;24.748;2022-10-16T15:19:32;9.95;;;5.18;;
18526;SDS011;9393;42.158;24.748;2022-10-16T15:22:36;10.23;;;5.40;;
18526;SDS011;9393;42.158;24.748;2022-10-16T15:25:41;7.43;;;5.50;;
18526;SDS011;9393;42.158;24.748;2022-10-16T15:28:45;9.50;;;5.17;;
18526;SDS011;9393;42.158;24.748;2022-10-16T15:31:50;8.70;;;5.77;;
18526;SDS011;9393;42.158;24.748;2022-10-16T15:34:54;9.17;;;5.73;;
18526;SDS011;9393;42.158;24.748;2022-10-16T15:38:00;11.43;;;5.63;;
18526;SDS011;9393;42.158;24.748;2022-10-16T15:41:09;16.23;;;7.50;;
18526;SDS011;9393;42.158;24.748;2022-10-16T15:44:13;21.30;;;7.00;;
18526;SDS011;9393;42.158;24.748;2022-10-16T15:47:23;9.00;;;5.00;;
18526;SDS011;9393;42.158;24.748;2022-10-16T15:50:30;7.83;;;5.50;;
18526;SDS011;9393;42.158;24.748;2022-10-16T15:53:45;12.50;;;6.07;;
18526;SDS011;9393;42.158;24.748;2022-10-16T15:56:48;8.37;;;5.73;;
18526;SDS011;9393;42.158;24.748;2022-10-16T15:59:54;11.60;;;6.70;;
18526;SDS011;9393;42.158;24.748;2022-10-16T16:02:58;9.27;;;5.20;;
18526;SDS011;9393;42.158;24.748;2022-10-16T16:06:03;8.40;;;5.43;;
18526;SDS011;9393;42.158;24.748;2022-10-16T16:09:09;12.63;;;5.83;;
18526;SDS011;9393;42.158;24.748;2022-10-16T16:12:12;7.33;;;5.77;;
18526;SDS011;9393;42.158;24.748;2022-10-16T16:15:15;10.50;;;5.70;;
18526;SDS011;9393;42.158;24.748;2022-10-16T16:18:18;8.23;;;5.90;;
18526;SDS011;9393;42.158;24.748;2022-10-16T16:21:22;8.77;;;6.10;;
18526;SDS011;9393;42.158;24.748;2022-10-16T16:24:26;12.57;;;6.20;;
18526;SDS011;9393;42.158;24.748;2022-10-16T16:27:30;11.67;;;5.93;;
18526;SDS011;9393;42.158;24.748;2022-10-16T16:30:35;13.50;;;7.10;;
18526;SDS011;9393;42.158;24.748;2022-10-16T16:33:38;9.90;;;6.27;;
18526;SDS011;9393;42.158;24.748;2022-10-16T16:36:41;11.93;;;7.13;;
18526;SDS011;9393;42.158;24.748;2022-10-16T16:39:46;12.53;;;6.67;;
18526;SDS011;9393;42.158;24.748;2022-10-16T16:42:49;9.73;;;6.93;;
18526;SDS011;9393;42.158;24.748;2022-10-16T16:45:52;13.70;;;6.77;;
18526;SDS011;9393;42.158;24.748;2022-10-16T16:48:57;11.63;;;6.50;;
18526;SDS011;9393;42.158;24.748;2022-10-16T16:52:00;12.73;;;10.00;;
18526;SDS011;9393;42.158;24.748;2022-10-16T16:55:05;15.13;;;10.33;;
18526;SDS011;9393;42.158;24.748;2022-10-16T16:58:09;12.37;;;8.07;;
18526;SDS011;9393;42.158;24.748;2022-10-16T17:01:12;16.43;;;9.43;;
18526;SDS011;9393;42.158;24.748;2022-10-16T17:04:20;23.43;;;8.03;;
18526;SDS011;9393;42.158;24.748;2022-10-16T17:07:24;13.83;;;7.80;;
18526;SDS011;9393;42.158;24.748;2022-10-16T17:10:30;14.27;;;7.33;;
18526;SDS011;9393;42.158;24.748;2022-10-16T17:13:34;14.63;;;6.93;;
18526;SDS011;9393;42.158;24.748;2022-10-16T17:16:38;12.80;;;7.90;;
18526;SDS011;9393;42.158;24.748;2022-10-16T17:19:45;14.07;;;7.70;;
18526;SDS011;9393;42.158;24.748;2022-10-16T17:22:48;11.10;;;7.73;;
18526;SDS011;9393;42.158;24.748;2022-10-16T17:25:54;12.20;;;7.90;;
18526;SDS011;9393;42.158;24.748;2022-10-16T17:28:57;17.47;;;8.70;;
18526;SDS011;9393;42.158;24.748;2022-10-16T17:32:03;12.50;;;8.03;;
18526;SDS011;9393;42.158;24.748;2022-10-16T17:35:06;14.90;;;8.87;;
18526;SDS011;9393;42.158;24.748;2022-10-16T17:38:10;21.27;;;10.83;;
18526;SDS011;9393;42.158;24.748;2022-10-16T17:41:17;19.37;;;10.77;;
18526;SDS011;9393;42.158;24.748;2022-10-16T17:44:22;21.07;;;11.03;;
18526;SDS011;9393;42.158;24.748;2022-10-16T17:47:26;20.43;;;11.87;;
18526;SDS011;9393;42.158;24.748;2022-10-16T17:50:29;28.13;;;17.20;;
18526;SDS011;9393;42.158;24.748;2022-10-16T17:53:33;18.97;;;10.90;;
18526;SDS011;9393;42.158;24.748;2022-10-16T17:56:37;26.97;;;11.53;;
18526;SDS011;9393;42.158;24.748;2022-10-16T17:59:44;22.80;;;12.07;;
18526;SDS011;9393;42.158;24.748;2022-10-16T18:02:47;26.23;;;13.40;;
18526;SDS011;9393;42.158;24.748;2022-10-16T18:05:51;18.93;;;10.63;;
18526;SDS011;9393;42.158;24.748;2022-10-16T18:08:55;20.70;;;11.03;;
18526;SDS011;9393;42.158;24.748;2022-10-16T18:12:01;18.80;;;10.77;;
18526;SDS011;9393;42.158;24.748;2022-10-16T18:15:04;24.23;;;11.37;;
18526;SDS011;9393;42.158;24.748;2022-10-16T18:18:08;17.10;;;9.10;;
18526;SDS011;9393;42.158;24.748;2022-10-16T18:21:13;21.80;;;10.27;;
18526;SDS011;9393;42.158;24.748;2022-10-16T18:24:17;31.20;;;15.40;;
18526;SDS011;9393;42.158;24.748;2022-10-16T18:27:23;25.13;;;12.13;;
18526;SDS011;9393;42.158;24.748;2022-10-16T18:30:26;18.83;;;10.70;;
18526;SDS011;9393;42.158;24.748;2022-10-16T18:33:31;18.60;;;9.80;;
18526;SDS011;9393;42.158;24.748;2022-10-16T18:36:34;19.73;;;11.40;;
18526;SDS011;9393;42.158;24.748;2022-10-16T18:39:38;22.00;;;11.00;;
18526;SDS011;9393;42.158;24.748;2022-10-16T18:42:42;20.47;;;11.23;;
18526;SDS011;9393;42.158;24.748;2022-10-16T18:45:53;18.47;;;10.07;;